sensor_id;sensor_type;location;lat;lon;timestamp;temperature;humidity
33803;DHT22;20110;53.120;5.786;2023-03-14T00:00:15;8.30;99.90
33803;DHT22;20110;53.120;5.786;2023-03-14T00:02:42;8.50;99.90
33803;DHT22;20110;53.120;5.786;2023-03-14T00:05:08;8.60;99.90
33803;DHT22;20110;53.120;5.786;2023-03-14T00:07:39;8.60;99.90
33803;DHT22;20110;53.120;5.786;2023-03-14T00:10:10;8.70;99.90
33803;DHT22;20110;53.120;5.786;2023-03-14T00:12:38;8.50;99.90
33803;DHT22;20110;53.120;5.786;2023-03-14T00:15:11;8.40;99.90
33803;DHT22;20110;53.120;5.786;2023-03-14T00:17:38;8.40;99.90
33803;DHT22;20110;53.120;5.786;2023-03-14T00:20:06;8.30;99.90
33803;DHT22;20110;53.120;5.786;2023-03-14T00:22:40;8.20;99.90
33803;DHT22;20110;53.120;5.786;2023-03-14T00:25:08;8.10;99.90
33803;DHT22;20110;53.120;5.786;2023-03-14T00:27:35;8.00;99.90
33803;DHT22;20110;53.120;5.786;2023-03-14T00:30:02;8.00;99.90
33803;DHT22;20110;53.120;5.786;2023-03-14T00:32:29;7.90;99.90
33803;DHT22;20110;53.120;5.786;2023-03-14T00:34:54;7.90;99.90
33803;DHT22;20110;53.120;5.786;2023-03-14T00:37:20;7.90;99.90
33803;DHT22;20110;53.120;5.786;2023-03-14T00:39:46;7.80;99.90
33803;DHT22;20110;53.120;5.786;2023-03-14T00:42:13;7.80;99.90
33803;DHT22;20110;53.120;5.786;2023-03-14T00:44:39;7.80;99.90
33803;DHT22;20110;53.120;5.786;2023-03-14T00:47:05;8.00;99.90
33803;DHT22;20110;53.120;5.786;2023-03-14T00:49:31;7.90;99.90
33803;DHT22;20110;53.120;5.786;2023-03-14T00:51:57;7.80;99.90
33803;DHT22;20110;53.120;5.786;2023-03-14T00:54:22;7.80;99.90
33803;DHT22;20110;53.120;5.786;2023-03-14T00:56:48;7.80;99.90
33803;DHT22;20110;53.120;5.786;2023-03-14T00:59:15;7.70;99.90
33803;DHT22;20110;53.120;5.786;2023-03-14T01:01:42;7.70;99.90
33803;DHT22;20110;53.120;5.786;2023-03-14T01:04:10;7.80;99.90
33803;DHT22;20110;53.120;5.786;2023-03-14T01:06:36;7.80;99.90
33803;DHT22;20110;53.120;5.786;2023-03-14T01:09:02;7.80;99.90
33803;DHT22;20110;53.120;5.786;2023-03-14T01:11:31;7.90;99.90
33803;DHT22;20110;53.120;5.786;2023-03-14T01:13:59;7.90;99.90
33803;DHT22;20110;53.120;5.786;2023-03-14T01:16:28;8.00;99.90
33803;DHT22;20110;53.120;5.786;2023-03-14T01:18:55;7.90;99.90
33803;DHT22;20110;53.120;5.786;2023-03-14T01:21:27;8.00;99.90
33803;DHT22;20110;53.120;5.786;2023-03-14T01:23:56;8.10;99.90
33803;DHT22;20110;53.120;5.786;2023-03-14T01:26:26;8.10;99.90
33803;DHT22;20110;53.120;5.786;2023-03-14T01:28:54;8.10;99.90
33803;DHT22;20110;53.120;5.786;2023-03-14T01:31:22;8.10;99.90
33803;DHT22;20110;53.120;5.786;2023-03-14T01:33:49;8.10;99.90
33803;DHT22;20110;53.120;5.786;2023-03-14T01:36:17;8.00;99.90
33803;DHT22;20110;53.120;5.786;2023-03-14T01:38:44;8.00;99.90
33803;DHT22;20110;53.120;5.786;2023-03-14T01:41:18;8.00;99.90
33803;DHT22;20110;53.120;5.786;2023-03-14T01:43:46;7.80;99.90
33803;DHT22;20110;53.120;5.786;2023-03-14T01:46:38;7.70;99.90
33803;DHT22;20110;53.120;5.786;2023-03-14T01:49:18;7.60;99.90
33803;DHT22;20110;53.120;5.786;2023-03-14T01:57:04;7.50;99.90
33803;DHT22;20110;53.120;5.786;2023-03-14T02:00:05;7.50;99.90
33803;DHT22;20110;53.120;5.786;2023-03-14T02:02:54;7.50;99.90
33803;DHT22;20110;53.120;5.786;2023-03-14T02:05:28;7.40;99.90
33803;DHT22;20110;53.120;5.786;2023-03-14T02:08:02;7.40;99.90
33803;DHT22;20110;53.120;5.786;2023-03-14T02:10:34;7.40;99.90
33803;DHT22;20110;53.120;5.786;2023-03-14T02:13:05;7.40;99.90
33803;DHT22;20110;53.120;5.786;2023-03-14T02:15:32;7.40;99.90
33803;DHT22;20110;53.120;5.786;2023-03-14T02:17:59;7.40;99.90
33803;DHT22;20110;53.120;5.786;2023-03-14T02:20:55;7.30;99.90
33803;DHT22;20110;53.120;5.786;2023-03-14T02:32:34;7.40;99.90
33803;DHT22;20110;53.120;5.786;2023-03-14T02:35:09;7.40;99.90
33803;DHT22;20110;53.120;5.786;2023-03-14T02:37:52;7.40;99.90
33803;DHT22;20110;53.120;5.786;2023-03-14T02:40:18;7.40;99.90
33803;DHT22;20110;53.120;5.786;2023-03-14T02:42:44;7.30;99.90
33803;DHT22;20110;53.120;5.786;2023-03-14T02:47:59;7.30;99.90
33803;DHT22;20110;53.120;5.786;2023-03-14T02:50:31;7.20;99.90
33803;DHT22;20110;53.120;5.786;2023-03-14T02:52:59;7.20;99.90
33803;DHT22;20110;53.120;5.786;2023-03-14T02:55:25;7.20;99.90
33803;DHT22;20110;53.120;5.786;2023-03-14T02:57:52;7.20;99.90
33803;DHT22;20110;53.120;5.786;2023-03-14T03:00:19;7.20;99.90
33803;DHT22;20110;53.120;5.786;2023-03-14T03:02:45;7.20;99.90
33803;DHT22;20110;53.120;5.786;2023-03-14T03:05:12;7.20;99.90
33803;DHT22;20110;53.120;5.786;2023-03-14T03:07:38;7.20;99.90
33803;DHT22;20110;53.120;5.786;2023-03-14T03:10:04;7.20;99.90
33803;DHT22;20110;53.120;5.786;2023-03-14T03:12:30;7.20;99.90
33803;DHT22;20110;53.120;5.786;2023-03-14T03:14:56;7.30;99.90
33803;DHT22;20110;53.120;5.786;2023-03-14T03:17:22;7.20;99.90
33803;DHT22;20110;53.120;5.786;2023-03-14T03:19:48;7.20;99.90
33803;DHT22;20110;53.120;5.786;2023-03-14T03:22:13;7.20;99.90
33803;DHT22;20110;53.120;5.786;2023-03-14T03:24:39;7.30;99.90
33803;DHT22;20110;53.120;5.786;2023-03-14T03:27:05;7.20;99.90
33803;DHT22;20110;53.120;5.786;2023-03-14T03:29:31;7.20;99.90
33803;DHT22;20110;53.120;5.786;2023-03-14T03:31:57;7.20;99.90
33803;DHT22;20110;53.120;5.786;2023-03-14T03:34:23;7.20;99.90
33803;DHT22;20110;53.120;5.786;2023-03-14T03:36:48;7.30;99.90
33803;DHT22;20110;53.120;5.786;2023-03-14T03:39:14;7.20;99.90
33803;DHT22;20110;53.120;5.786;2023-03-14T03:41:40;7.30;99.90
33803;DHT22;20110;53.120;5.786;2023-03-14T03:44:06;7.30;99.90
33803;DHT22;20110;53.120;5.786;2023-03-14T03:46:32;7.20;99.90
33803;DHT22;20110;53.120;5.786;2023-03-14T03:48:59;7.20;99.90
33803;DHT22;20110;53.120;5.786;2023-03-14T03:51:25;7.20;99.90
33803;DHT22;20110;53.120;5.786;2023-03-14T03:53:51;7.30;99.90
33803;DHT22;20110;53.120;5.786;2023-03-14T03:56:17;7.30;99.90
33803;DHT22;20110;53.120;5.786;2023-03-14T03:58:44;7.30;99.90
33803;DHT22;20110;53.120;5.786;2023-03-14T04:01:10;7.20;99.90
33803;DHT22;20110;53.120;5.786;2023-03-14T04:03:36;7.20;99.90
33803;DHT22;20110;53.120;5.786;2023-03-14T04:06:13;7.30;99.90
33803;DHT22;20110;53.120;5.786;2023-03-14T04:08:39;7.30;99.90
33803;DHT22;20110;53.120;5.786;2023-03-14T04:11:09;7.20;99.90
33803;DHT22;20110;53.120;5.786;2023-03-14T04:13:35;7.30;99.90
33803;DHT22;20110;53.120;5.786;2023-03-14T04:16:00;7.30;99.90
33803;DHT22;20110;53.120;5.786;2023-03-14T04:18:27;7.30;99.90
33803;DHT22;20110;53.120;5.786;2023-03-14T04:20:55;7.30;99.90
33803;DHT22;20110;53.120;5.786;2023-03-14T04:23:23;7.30;99.90
33803;DHT22;20110;53.120;5.786;2023-03-14T04:25:51;7.30;99.90
33803;DHT22;20110;53.120;5.786;2023-03-14T04:28:17;7.20;99.90
33803;DHT22;20110;53.120;5.786;2023-03-14T04:30:43;7.20;99.90
33803;DHT22;20110;53.120;5.786;2023-03-14T04:33:09;7.10;99.90
33803;DHT22;20110;53.120;5.786;2023-03-14T04:35:36;7.10;99.90
33803;DHT22;20110;53.120;5.786;2023-03-14T04:38:02;7.10;99.90
33803;DHT22;20110;53.120;5.786;2023-03-14T04:40:28;7.00;99.90
33803;DHT22;20110;53.120;5.786;2023-03-14T04:42:54;7.00;99.90
33803;DHT22;20110;53.120;5.786;2023-03-14T04:45:19;6.90;99.90
33803;DHT22;20110;53.120;5.786;2023-03-14T04:47:45;6.90;99.90
33803;DHT22;20110;53.120;5.786;2023-03-14T04:50:11;6.90;99.90
33803;DHT22;20110;53.120;5.786;2023-03-14T04:52:37;6.90;99.90
33803;DHT22;20110;53.120;5.786;2023-03-14T04:55:03;6.90;99.90
33803;DHT22;20110;53.120;5.786;2023-03-14T04:57:29;6.90;99.90
33803;DHT22;20110;53.120;5.786;2023-03-14T04:59:55;6.90;99.90
33803;DHT22;20110;53.120;5.786;2023-03-14T05:02:21;6.90;99.90
33803;DHT22;20110;53.120;5.786;2023-03-14T05:04:47;6.90;99.90
33803;DHT22;20110;53.120;5.786;2023-03-14T05:07:13;6.90;99.90
33803;DHT22;20110;53.120;5.786;2023-03-14T05:09:38;6.90;99.90
33803;DHT22;20110;53.120;5.786;2023-03-14T05:12:04;6.90;99.90
33803;DHT22;20110;53.120;5.786;2023-03-14T05:14:31;6.90;99.90
33803;DHT22;20110;53.120;5.786;2023-03-14T05:16:57;7.00;99.90
33803;DHT22;20110;53.120;5.786;2023-03-14T05:19:23;7.00;99.90
33803;DHT22;20110;53.120;5.786;2023-03-14T05:21:48;6.90;99.90
33803;DHT22;20110;53.120;5.786;2023-03-14T05:24:14;6.90;99.90
33803;DHT22;20110;53.120;5.786;2023-03-14T05:26:40;6.90;99.90
33803;DHT22;20110;53.120;5.786;2023-03-14T05:29:06;7.00;99.90
33803;DHT22;20110;53.120;5.786;2023-03-14T05:31:32;7.00;99.90
33803;DHT22;20110;53.120;5.786;2023-03-14T05:33:57;7.00;99.90
33803;DHT22;20110;53.120;5.786;2023-03-14T05:36:23;6.90;99.90
33803;DHT22;20110;53.120;5.786;2023-03-14T05:38:49;6.90;99.90
33803;DHT22;20110;53.120;5.786;2023-03-14T05:41:15;6.90;99.90
33803;DHT22;20110;53.120;5.786;2023-03-14T05:43:40;6.90;99.90
33803;DHT22;20110;53.120;5.786;2023-03-14T05:46:06;6.80;99.90
33803;DHT22;20110;53.120;5.786;2023-03-14T05:48:32;6.80;99.90
33803;DHT22;20110;53.120;5.786;2023-03-14T05:50:58;6.70;99.90
33803;DHT22;20110;53.120;5.786;2023-03-14T05:53:25;6.60;99.90
33803;DHT22;20110;53.120;5.786;2023-03-14T05:55:52;6.60;99.90
33803;DHT22;20110;53.120;5.786;2023-03-14T05:58:19;6.50;99.90
33803;DHT22;20110;53.120;5.786;2023-03-14T06:00:45;6.30;99.90
33803;DHT22;20110;53.120;5.786;2023-03-14T06:03:10;6.10;99.90
33803;DHT22;20110;53.120;5.786;2023-03-14T06:05:36;6.00;99.90
33803;DHT22;20110;53.120;5.786;2023-03-14T06:08:02;5.90;99.90
33803;DHT22;20110;53.120;5.786;2023-03-14T06:10:28;5.80;99.90
33803;DHT22;20110;53.120;5.786;2023-03-14T06:12:54;5.50;99.90
33803;DHT22;20110;53.120;5.786;2023-03-14T06:15:20;5.30;99.90
33803;DHT22;20110;53.120;5.786;2023-03-14T06:17:46;4.90;99.90
33803;DHT22;20110;53.120;5.786;2023-03-14T06:20:12;4.70;99.90
33803;DHT22;20110;53.120;5.786;2023-03-14T06:22:38;4.50;99.90
33803;DHT22;20110;53.120;5.786;2023-03-14T06:25:06;4.40;99.90
33803;DHT22;20110;53.120;5.786;2023-03-14T06:27:33;4.30;99.90
33803;DHT22;20110;53.120;5.786;2023-03-14T06:29:59;4.20;99.90
33803;DHT22;20110;53.120;5.786;2023-03-14T06:32:26;4.10;99.90
33803;DHT22;20110;53.120;5.786;2023-03-14T06:34:52;3.90;99.90
33803;DHT22;20110;53.120;5.786;2023-03-14T06:37:18;3.90;99.90
33803;DHT22;20110;53.120;5.786;2023-03-14T06:39:44;3.80;99.90
33803;DHT22;20110;53.120;5.786;2023-03-14T06:42:10;3.70;99.90
33803;DHT22;20110;53.120;5.786;2023-03-14T06:44:36;3.60;99.90
33803;DHT22;20110;53.120;5.786;2023-03-14T06:47:02;3.60;99.90
33803;DHT22;20110;53.120;5.786;2023-03-14T06:49:28;3.50;99.90
33803;DHT22;20110;53.120;5.786;2023-03-14T06:51:57;3.50;99.90
33803;DHT22;20110;53.120;5.786;2023-03-14T06:54:28;3.50;99.90
33803;DHT22;20110;53.120;5.786;2023-03-14T06:56:54;3.50;99.90
33803;DHT22;20110;53.120;5.786;2023-03-14T06:59:32;3.50;99.90
33803;DHT22;20110;53.120;5.786;2023-03-14T07:01:58;3.50;99.90
33803;DHT22;20110;53.120;5.786;2023-03-14T07:04:23;3.40;99.90
33803;DHT22;20110;53.120;5.786;2023-03-14T07:06:51;3.50;99.90
33803;DHT22;20110;53.120;5.786;2023-03-14T07:09:17;3.50;99.90
33803;DHT22;20110;53.120;5.786;2023-03-14T07:11:43;3.50;99.90
33803;DHT22;20110;53.120;5.786;2023-03-14T07:14:09;3.40;99.90
33803;DHT22;20110;53.120;5.786;2023-03-14T07:16:35;3.40;99.90
33803;DHT22;20110;53.120;5.786;2023-03-14T07:19:02;3.40;99.90
33803;DHT22;20110;53.120;5.786;2023-03-14T07:21:31;3.50;99.90
33803;DHT22;20110;53.120;5.786;2023-03-14T07:23:58;3.40;99.90
33803;DHT22;20110;53.120;5.786;2023-03-14T07:26:24;3.40;99.90
33803;DHT22;20110;53.120;5.786;2023-03-14T07:28:50;3.50;99.90
33803;DHT22;20110;53.120;5.786;2023-03-14T07:31:17;3.40;99.90
33803;DHT22;20110;53.120;5.786;2023-03-14T07:33:43;3.50;99.90
33803;DHT22;20110;53.120;5.786;2023-03-14T07:36:09;3.50;99.90
33803;DHT22;20110;53.120;5.786;2023-03-14T07:38:35;3.50;99.90
33803;DHT22;20110;53.120;5.786;2023-03-14T07:41:03;3.40;99.90
33803;DHT22;20110;53.120;5.786;2023-03-14T07:43:30;3.50;99.90
33803;DHT22;20110;53.120;5.786;2023-03-14T07:45:56;3.50;99.90
33803;DHT22;20110;53.120;5.786;2023-03-14T07:48:22;3.50;99.90
33803;DHT22;20110;53.120;5.786;2023-03-14T07:50:51;3.50;99.90
33803;DHT22;20110;53.120;5.786;2023-03-14T07:53:18;3.60;99.90
33803;DHT22;20110;53.120;5.786;2023-03-14T07:55:45;3.60;99.90
33803;DHT22;20110;53.120;5.786;2023-03-14T07:58:12;3.80;99.90
33803;DHT22;20110;53.120;5.786;2023-03-14T08:00:40;3.90;99.90
33803;DHT22;20110;53.120;5.786;2023-03-14T08:03:06;4.00;99.90
33803;DHT22;20110;53.120;5.786;2023-03-14T08:05:37;4.10;99.90
33803;DHT22;20110;53.120;5.786;2023-03-14T08:08:04;4.10;99.90
33803;DHT22;20110;53.120;5.786;2023-03-14T08:10:31;4.20;99.90
33803;DHT22;20110;53.120;5.786;2023-03-14T08:12:58;4.30;99.90
33803;DHT22;20110;53.120;5.786;2023-03-14T08:15:26;4.30;99.90
33803;DHT22;20110;53.120;5.786;2023-03-14T08:17:55;4.40;99.90
33803;DHT22;20110;53.120;5.786;2023-03-14T08:20:26;4.40;99.90
33803;DHT22;20110;53.120;5.786;2023-03-14T08:22:56;4.40;99.90
33803;DHT22;20110;53.120;5.786;2023-03-14T08:25:23;4.50;99.90
33803;DHT22;20110;53.120;5.786;2023-03-14T08:27:49;4.50;99.90
33803;DHT22;20110;53.120;5.786;2023-03-14T08:30:17;4.60;99.90
33803;DHT22;20110;53.120;5.786;2023-03-14T08:32:43;4.70;99.90
33803;DHT22;20110;53.120;5.786;2023-03-14T08:35:10;4.90;99.90
33803;DHT22;20110;53.120;5.786;2023-03-14T08:37:36;5.00;99.90
33803;DHT22;20110;53.120;5.786;2023-03-14T08:40:04;5.10;99.90
33803;DHT22;20110;53.120;5.786;2023-03-14T08:42:36;5.20;99.90
33803;DHT22;20110;53.120;5.786;2023-03-14T08:45:03;5.30;99.90
33803;DHT22;20110;53.120;5.786;2023-03-14T08:47:30;5.40;99.90
33803;DHT22;20110;53.120;5.786;2023-03-14T08:49:56;5.30;99.90
33803;DHT22;20110;53.120;5.786;2023-03-14T08:52:22;5.10;99.90
33803;DHT22;20110;53.120;5.786;2023-03-14T08:54:48;4.90;99.90
33803;DHT22;20110;53.120;5.786;2023-03-14T08:57:14;5.00;99.90
33803;DHT22;20110;53.120;5.786;2023-03-14T08:59:40;5.00;99.90
33803;DHT22;20110;53.120;5.786;2023-03-14T09:02:06;5.00;99.90
33803;DHT22;20110;53.120;5.786;2023-03-14T09:04:34;4.80;99.90
33803;DHT22;20110;53.120;5.786;2023-03-14T09:06:59;4.60;99.90
33803;DHT22;20110;53.120;5.786;2023-03-14T09:09:26;4.60;99.90
33803;DHT22;20110;53.120;5.786;2023-03-14T09:11:53;4.50;99.90
33803;DHT22;20110;53.120;5.786;2023-03-14T09:14:19;4.60;99.90
33803;DHT22;20110;53.120;5.786;2023-03-14T09:16:44;4.70;99.90
33803;DHT22;20110;53.120;5.786;2023-03-14T09:19:10;4.90;99.90
33803;DHT22;20110;53.120;5.786;2023-03-14T09:21:36;5.00;99.90
33803;DHT22;20110;53.120;5.786;2023-03-14T09:24:04;5.20;99.90
33803;DHT22;20110;53.120;5.786;2023-03-14T09:26:32;5.30;99.90
33803;DHT22;20110;53.120;5.786;2023-03-14T09:28:58;5.30;99.90
33803;DHT22;20110;53.120;5.786;2023-03-14T09:31:24;5.40;99.90
33803;DHT22;20110;53.120;5.786;2023-03-14T09:33:50;5.50;99.90
33803;DHT22;20110;53.120;5.786;2023-03-14T09:36:16;5.50;99.90
33803;DHT22;20110;53.120;5.786;2023-03-14T09:38:42;5.50;99.90
33803;DHT22;20110;53.120;5.786;2023-03-14T09:41:30;5.60;99.90
33803;DHT22;20110;53.120;5.786;2023-03-14T09:44:49;5.60;99.90
33803;DHT22;20110;53.120;5.786;2023-03-14T09:47:23;5.70;99.90
33803;DHT22;20110;53.120;5.786;2023-03-14T09:49:51;5.70;99.90
33803;DHT22;20110;53.120;5.786;2023-03-14T09:52:30;5.60;99.90
33803;DHT22;20110;53.120;5.786;2023-03-14T09:55:01;5.60;99.90
33803;DHT22;20110;53.120;5.786;2023-03-14T09:57:32;5.50;99.90
33803;DHT22;20110;53.120;5.786;2023-03-14T10:00:25;5.40;99.90
33803;DHT22;20110;53.120;5.786;2023-03-14T10:05:51;5.80;99.50
33803;DHT22;20110;53.120;5.786;2023-03-14T10:08:17;6.00;97.80
33803;DHT22;20110;53.120;5.786;2023-03-14T10:10:43;6.30;99.80
33803;DHT22;20110;53.120;5.786;2023-03-14T10:15:55;6.20;93.80
33803;DHT22;20110;53.120;5.786;2023-03-14T10:18:30;6.30;92.80
33803;DHT22;20110;53.120;5.786;2023-03-14T10:23:53;6.50;92.10
33803;DHT22;20110;53.120;5.786;2023-03-14T10:26:28;6.40;92.10
33803;DHT22;20110;53.120;5.786;2023-03-14T10:29:02;6.10;91.10
33803;DHT22;20110;53.120;5.786;2023-03-14T10:32:00;6.10;90.80
33803;DHT22;20110;53.120;5.786;2023-03-14T10:34:31;6.40;90.10
33803;DHT22;20110;53.120;5.786;2023-03-14T10:37:20;6.60;84.30
33803;DHT22;20110;53.120;5.786;2023-03-14T10:40:12;6.80;81.70
33803;DHT22;20110;53.120;5.786;2023-03-14T10:42:41;6.80;80.80
33803;DHT22;20110;53.120;5.786;2023-03-14T10:48:19;6.80;85.40
33803;DHT22;20110;53.120;5.786;2023-03-14T10:50:56;6.40;89.10
33803;DHT22;20110;53.120;5.786;2023-03-14T10:53:25;6.00;86.50
33803;DHT22;20110;53.120;5.786;2023-03-14T10:55:52;6.30;89.50
33803;DHT22;20110;53.120;5.786;2023-03-14T10:58:29;6.60;86.30
33803;DHT22;20110;53.120;5.786;2023-03-14T11:04:13;7.10;78.40
33803;DHT22;20110;53.120;5.786;2023-03-14T11:13:04;7.50;72.10
33803;DHT22;20110;53.120;5.786;2023-03-14T11:16:09;7.70;67.90
33803;DHT22;20110;53.120;5.786;2023-03-14T11:18:58;7.90;69.60
33803;DHT22;20110;53.120;5.786;2023-03-14T11:24:54;7.70;68.60
33803;DHT22;20110;53.120;5.786;2023-03-14T11:27:51;7.40;66.00
33803;DHT22;20110;53.120;5.786;2023-03-14T11:30:42;7.00;67.90
33803;DHT22;20110;53.120;5.786;2023-03-14T11:33:48;7.10;69.00
33803;DHT22;20110;53.120;5.786;2023-03-14T11:36:31;7.40;71.60
33803;DHT22;20110;53.120;5.786;2023-03-14T11:39:10;8.00;69.30
33803;DHT22;20110;53.120;5.786;2023-03-14T11:41:52;8.00;68.60
33803;DHT22;20110;53.120;5.786;2023-03-14T11:44:23;7.70;71.50
33803;DHT22;20110;53.120;5.786;2023-03-14T11:53:04;7.00;73.90
33803;DHT22;20110;53.120;5.786;2023-03-14T11:55:36;7.40;72.60
33803;DHT22;20110;53.120;5.786;2023-03-14T11:58:23;7.80;74.50
33803;DHT22;20110;53.120;5.786;2023-03-14T12:00:54;8.20;73.40
33803;DHT22;20110;53.120;5.786;2023-03-14T12:09:01;7.10;73.00
33803;DHT22;20110;53.120;5.786;2023-03-14T12:14:24;7.40;72.60
33803;DHT22;20110;53.120;5.786;2023-03-14T12:17:40;7.20;68.80
33803;DHT22;20110;53.120;5.786;2023-03-14T12:20:15;7.00;70.60
33803;DHT22;20110;53.120;5.786;2023-03-14T12:25:18;6.60;71.10
33803;DHT22;20110;53.120;5.786;2023-03-14T12:33:29;6.80;66.90
33803;DHT22;20110;53.120;5.786;2023-03-14T12:36:01;7.00;64.30
33803;DHT22;20110;53.120;5.786;2023-03-14T12:38:32;7.10;63.20
33803;DHT22;20110;53.120;5.786;2023-03-14T12:41:08;7.20;66.20
33803;DHT22;20110;53.120;5.786;2023-03-14T12:43:38;7.30;67.30
33803;DHT22;20110;53.120;5.786;2023-03-14T12:46:24;7.30;68.20
33803;DHT22;20110;53.120;5.786;2023-03-14T12:51:40;7.00;67.90
33803;DHT22;20110;53.120;5.786;2023-03-14T13:00:23;7.10;69.50
33803;DHT22;20110;53.120;5.786;2023-03-14T13:03:20;7.20;69.80
33803;DHT22;20110;53.120;5.786;2023-03-14T13:05:55;7.20;67.40
33803;DHT22;20110;53.120;5.786;2023-03-14T13:08:45;6.90;65.80
33803;DHT22;20110;53.120;5.786;2023-03-14T13:11:19;6.50;65.10
33803;DHT22;20110;53.120;5.786;2023-03-14T13:13:59;6.80;69.30
33803;DHT22;20110;53.120;5.786;2023-03-14T13:16:25;6.90;67.20
33803;DHT22;20110;53.120;5.786;2023-03-14T13:19:18;6.90;66.70
33803;DHT22;20110;53.120;5.786;2023-03-14T13:21:47;7.40;68.90
33803;DHT22;20110;53.120;5.786;2023-03-14T13:24:23;7.60;64.50
33803;DHT22;20110;53.120;5.786;2023-03-14T13:26:53;7.40;64.90
33803;DHT22;20110;53.120;5.786;2023-03-14T13:29:31;6.80;65.70
33803;DHT22;20110;53.120;5.786;2023-03-14T13:32:02;6.70;65.70
33803;DHT22;20110;53.120;5.786;2023-03-14T13:34:42;6.90;65.30
33803;DHT22;20110;53.120;5.786;2023-03-14T13:37:20;7.20;67.10
33803;DHT22;20110;53.120;5.786;2023-03-14T13:39:56;7.40;68.40
33803;DHT22;20110;53.120;5.786;2023-03-14T13:42:29;7.60;64.00
33803;DHT22;20110;53.120;5.786;2023-03-14T13:44:56;7.40;62.00
33803;DHT22;20110;53.120;5.786;2023-03-14T13:47:24;6.90;65.20
33803;DHT22;20110;53.120;5.786;2023-03-14T13:49:51;6.50;64.40
33803;DHT22;20110;53.120;5.786;2023-03-14T13:52:27;6.50;66.50
33803;DHT22;20110;53.120;5.786;2023-03-14T13:54:56;6.50;61.80
33803;DHT22;20110;53.120;5.786;2023-03-14T13:57:24;6.50;62.20
33803;DHT22;20110;53.120;5.786;2023-03-14T14:00:05;6.10;61.60
33803;DHT22;20110;53.120;5.786;2023-03-14T14:02:37;6.10;65.40
33803;DHT22;20110;53.120;5.786;2023-03-14T14:05:04;6.30;65.20
33803;DHT22;20110;53.120;5.786;2023-03-14T14:07:30;6.40;63.10
33803;DHT22;20110;53.120;5.786;2023-03-14T14:09:58;6.30;64.20
33803;DHT22;20110;53.120;5.786;2023-03-14T14:12:55;6.30;64.40
33803;DHT22;20110;53.120;5.786;2023-03-14T14:15:30;6.30;64.90
33803;DHT22;20110;53.120;5.786;2023-03-14T14:18:04;6.40;70.80
33803;DHT22;20110;53.120;5.786;2023-03-14T14:20:36;6.20;66.80
33803;DHT22;20110;53.120;5.786;2023-03-14T14:23:15;6.00;67.40
33803;DHT22;20110;53.120;5.786;2023-03-14T14:25:45;5.80;69.30
33803;DHT22;20110;53.120;5.786;2023-03-14T14:28:37;5.70;71.40
33803;DHT22;20110;53.120;5.786;2023-03-14T14:34:17;5.30;84.20
33803;DHT22;20110;53.120;5.786;2023-03-14T14:36:45;5.00;87.30
33803;DHT22;20110;53.120;5.786;2023-03-14T14:39:24;5.00;88.40
33803;DHT22;20110;53.120;5.786;2023-03-14T14:41:52;4.90;90.10
33803;DHT22;20110;53.120;5.786;2023-03-14T14:44:32;5.10;88.90
33803;DHT22;20110;53.120;5.786;2023-03-14T14:47:02;5.30;89.50
33803;DHT22;20110;53.120;5.786;2023-03-14T14:49:31;5.40;89.30
33803;DHT22;20110;53.120;5.786;2023-03-14T14:52:31;5.50;86.40
33803;DHT22;20110;53.120;5.786;2023-03-14T14:55:03;5.70;85.90
33803;DHT22;20110;53.120;5.786;2023-03-14T14:57:39;5.80;84.30
33803;DHT22;20110;53.120;5.786;2023-03-14T15:00:19;6.00;81.00
33803;DHT22;20110;53.120;5.786;2023-03-14T15:02:52;6.00;78.50
33803;DHT22;20110;53.120;5.786;2023-03-14T15:05:26;5.90;71.00
33803;DHT22;20110;53.120;5.786;2023-03-14T15:07:55;5.80;71.30
33803;DHT22;20110;53.120;5.786;2023-03-14T15:10:24;5.50;70.10
33803;DHT22;20110;53.120;5.786;2023-03-14T15:12:52;5.20;72.20
33803;DHT22;20110;53.120;5.786;2023-03-14T15:15:18;5.20;74.70
33803;DHT22;20110;53.120;5.786;2023-03-14T15:17:44;5.20;78.20
33803;DHT22;20110;53.120;5.786;2023-03-14T15:20:13;5.10;78.10
33803;DHT22;20110;53.120;5.786;2023-03-14T15:22:40;5.10;82.90
33803;DHT22;20110;53.120;5.786;2023-03-14T15:25:07;4.40;97.30
33803;DHT22;20110;53.120;5.786;2023-03-14T15:27:35;3.50;99.90
33803;DHT22;20110;53.120;5.786;2023-03-14T15:30:01;3.20;99.90
33803;DHT22;20110;53.120;5.786;2023-03-14T15:32:27;3.00;99.90
33803;DHT22;20110;53.120;5.786;2023-03-14T15:34:56;3.00;99.90
33803;DHT22;20110;53.120;5.786;2023-03-14T15:37:22;3.10;99.90
33803;DHT22;20110;53.120;5.786;2023-03-14T15:39:48;3.10;99.90
33803;DHT22;20110;53.120;5.786;2023-03-14T15:42:14;3.10;99.90
33803;DHT22;20110;53.120;5.786;2023-03-14T15:44:40;3.20;99.90
33803;DHT22;20110;53.120;5.786;2023-03-14T15:47:06;3.50;99.90
33803;DHT22;20110;53.120;5.786;2023-03-14T15:49:33;3.80;99.90
33803;DHT22;20110;53.120;5.786;2023-03-14T15:52:00;4.00;99.90
33803;DHT22;20110;53.120;5.786;2023-03-14T15:54:25;4.00;97.80
33803;DHT22;20110;53.120;5.786;2023-03-14T15:56:55;4.10;95.40
33803;DHT22;20110;53.120;5.786;2023-03-14T15:59:22;4.10;92.60
33803;DHT22;20110;53.120;5.786;2023-03-14T16:01:49;4.20;93.10
33803;DHT22;20110;53.120;5.786;2023-03-14T16:04:16;4.10;92.90
33803;DHT22;20110;53.120;5.786;2023-03-14T16:06:43;4.10;92.10
33803;DHT22;20110;53.120;5.786;2023-03-14T16:09:11;3.90;91.20
33803;DHT22;20110;53.120;5.786;2023-03-14T16:11:37;3.90;91.50
33803;DHT22;20110;53.120;5.786;2023-03-14T16:14:03;4.10;92.30
33803;DHT22;20110;53.120;5.786;2023-03-14T16:16:29;4.20;92.10
33803;DHT22;20110;53.120;5.786;2023-03-14T16:18:55;4.20;93.20
33803;DHT22;20110;53.120;5.786;2023-03-14T16:21:21;4.00;93.40
33803;DHT22;20110;53.120;5.786;2023-03-14T16:23:47;4.00;92.50
33803;DHT22;20110;53.120;5.786;2023-03-14T16:26:16;3.90;92.10
33803;DHT22;20110;53.120;5.786;2023-03-14T16:28:45;3.80;93.30
33803;DHT22;20110;53.120;5.786;2023-03-14T16:31:14;3.80;94.40
33803;DHT22;20110;53.120;5.786;2023-03-14T16:33:42;3.60;96.10
33803;DHT22;20110;53.120;5.786;2023-03-14T16:36:10;3.60;96.60
33803;DHT22;20110;53.120;5.786;2023-03-14T16:38:39;3.60;96.50
33803;DHT22;20110;53.120;5.786;2023-03-14T16:41:10;3.80;97.90
33803;DHT22;20110;53.120;5.786;2023-03-14T16:43:38;3.80;96.50
33803;DHT22;20110;53.120;5.786;2023-03-14T16:46:06;3.70;95.80
33803;DHT22;20110;53.120;5.786;2023-03-14T16:48:35;3.70;94.70
33803;DHT22;20110;53.120;5.786;2023-03-14T16:51:02;3.60;94.40
33803;DHT22;20110;53.120;5.786;2023-03-14T16:53:28;3.60;94.00
33803;DHT22;20110;53.120;5.786;2023-03-14T16:55:55;3.70;95.10
33803;DHT22;20110;53.120;5.786;2023-03-14T16:58:22;3.40;98.30
33803;DHT22;20110;53.120;5.786;2023-03-14T17:00:48;3.00;99.90
33803;DHT22;20110;53.120;5.786;2023-03-14T17:03:16;2.50;99.90
33803;DHT22;20110;53.120;5.786;2023-03-14T17:05:47;2.30;99.90
33803;DHT22;20110;53.120;5.786;2023-03-14T17:08:14;2.20;99.90
33803;DHT22;20110;53.120;5.786;2023-03-14T17:10:42;2.20;99.90
33803;DHT22;20110;53.120;5.786;2023-03-14T17:13:08;2.20;99.90
33803;DHT22;20110;53.120;5.786;2023-03-14T17:15:34;2.20;99.90
33803;DHT22;20110;53.120;5.786;2023-03-14T17:18:00;2.30;99.90